Time;durP1;ratioP1;P1;durP2;ratioP2;P2;SDS_P1;SDS_P2;PMS_P1;PMS_P2;Temp;Humidity;BMP_temperature;BMP_pressure;BME280_temperature;BME280_humidity;BME280_pressure;Samples;Min_cycle;Max_cycle;Signal;HPM_P1;HPM_P2
2023/12/04 00:01:16;;;;;;;35.83;13.93;;;;;;;-1.11;100.00;101014.72;6367995;22;20327;-77
2023/12/04 00:03:42;;;;;;;35.60;15.18;;;;;;;-1.05;100.00;101011.53;6367667;22;20002;-76
2023/12/04 00:06:09;;;;;;;40.58;15.07;;;;;;;-1.08;100.00;101016.25;6340018;22;20653;-76
2023/12/04 00:08:35;;;;;;;39.90;16.83;;;;;;;-1.10;100.00;101021.63;6367748;22;20276;-78
2023/12/04 00:11:01;;;;;;;36.50;13.48;;;;;;;-1.06;100.00;101003.81;6367655;22;20013;-76
2023/12/04 00:13:26;;;;;;;39.25;14.50;;;;;;;-1.04;100.00;100996.63;6339853;22;20033;-76
2023/12/04 00:15:51;;;;;;;29.70;14.02;;;;;;;-1.00;100.00;101011.97;6367648;22;20094;-77
2023/12/04 00:18:17;;;;;;;39.90;15.95;;;;;;;-1.05;100.00;101006.31;6367527;22;20365;-77
2023/12/04 00:20:42;;;;;;;32.70;15.63;;;;;;;-1.09;100.00;100997.03;6339749;22;20029;-77
2023/12/04 00:23:07;;;;;;;27.40;13.10;;;;;;;-1.08;100.00;101001.31;6339782;22;20093;-76
2023/12/04 00:25:33;;;;;;;40.30;15.45;;;;;;;-1.00;100.00;100996.22;6340480;22;20006;-76
2023/12/04 00:27:58;;;;;;;33.35;14.27;;;;;;;-0.99;100.00;100990.00;6341048;22;20017;-75
2023/12/04 00:30:23;;;;;;;32.05;14.90;;;;;;;-1.01;100.00;100998.97;6369034;22;20002;-77
2023/12/04 00:32:48;;;;;;;30.45;14.35;;;;;;;-1.08;100.00;101001.31;6369002;22;20009;-78
2023/12/04 00:35:14;;;;;;;47.90;19.20;;;;;;;-1.04;100.00;100979.09;6368988;22;20413;-75
2023/12/04 00:37:39;;;;;;;41.65;17.27;;;;;;;-1.08;100.00;100988.22;6368953;22;20013;-77
2023/12/04 00:40:05;;;;;;;38.10;15.02;;;;;;;-1.08;100.00;100977.72;6341098;22;20003;-76
2023/12/04 00:42:31;;;;;;;45.35;16.73;;;;;;;-1.03;100.00;100983.38;6368876;22;20002;-77
2023/12/04 00:44:56;;;;;;;26.50;13.13;;;;;;;-1.05;100.00;100974.00;6368906;22;20009;-77
2023/12/04 00:47:22;;;;;;;52.58;21.17;;;;;;;-1.04;100.00;100979.09;6340929;22;20079;-76
2023/12/04 00:49:47;;;;;;;38.03;17.08;;;;;;;-1.12;100.00;100970.25;6340877;22;20016;-78
2023/12/04 00:52:12;;;;;;;41.40;16.17;;;;;;;-1.09;100.00;100973.44;6341026;22;20012;-77
2023/12/04 00:54:41;;;;;;;35.97;15.15;;;;;;;-1.08;100.00;100969.84;6368773;22;20006;-78
2023/12/04 00:57:06;;;;;;;51.50;19.48;;;;;;;-1.14;100.00;100962.50;6368780;22;20123;-79
2023/12/04 00:59:31;;;;;;;45.47;18.23;;;;;;;-1.07;100.00;100970.66;6368806;22;20007;-78
2023/12/04 01:01:57;;;;;;;36.10;15.23;;;;;;;-1.10;100.00;100950.78;6341064;22;20006;-76
2023/12/04 01:04:22;;;;;;;36.75;16.58;;;;;;;-1.15;100.00;100953.00;6368788;22;20017;-77
2023/12/04 01:06:47;;;;;;;35.25;16.30;;;;;;;-1.16;100.00;100943.44;6368747;22;20082;-77
2023/12/04 01:09:13;;;;;;;40.35;16.60;;;;;;;-1.09;100.00;100951.63;6340818;22;20017;-77
2023/12/04 01:11:38;;;;;;;38.45;15.07;;;;;;;-1.09;100.00;100951.63;6368791;22;19998;-77
2023/12/04 01:14:04;;;;;;;35.95;15.43;;;;;;;-1.09;100.00;100954.22;6369001;22;20090;-77
2023/12/04 01:16:30;;;;;;;30.63;13.02;;;;;;;-1.07;100.00;100953.13;6340950;22;20006;-76
2023/12/04 01:18:56;;;;;;;35.55;14.48;;;;;;;-1.09;100.00;100947.19;6368744;22;20010;-76
2023/12/04 01:21:21;;;;;;;35.33;15.73;;;;;;;-1.12;100.00;100944.00;6340556;22;20022;-77
2023/12/04 01:23:46;;;;;;;38.42;15.73;;;;;;;-1.19;100.00;100935.84;6368836;22;20458;-78
2023/12/04 01:26:12;;;;;;;34.03;13.60;;;;;;;-1.11;100.00;100951.75;6340922;22;20002;-77
2023/12/04 01:28:37;;;;;;;51.80;21.33;;;;;;;-1.12;100.00;100929.09;6340865;22;20086;-76
2023/12/04 01:31:02;;;;;;;34.00;14.40;;;;;;;-1.14;100.00;100927.59;6368894;22;20037;-76
2023/12/04 01:33:29;;;;;;;35.67;15.70;;;;;;;-1.08;100.00;100930.50;6368838;22;19998;-77
2023/12/04 01:35:55;;;;;;;41.05;16.88;;;;;;;-1.13;100.00;100927.44;6340370;22;20081;-76
2023/12/04 01:38:20;;;;;;;26.42;11.57;;;;;;;-1.08;100.00;100932.28;6340858;22;20040;-77
2023/12/04 01:40:45;;;;;;;38.33;16.00;;;;;;;-1.14;100.00;100917.91;6368601;22;20495;-76
2023/12/04 01:43:11;;;;;;;38.85;15.23;;;;;;;-1.05;100.00;100927.59;6340777;22;20030;-76
2023/12/04 01:45:36;;;;;;;31.73;13.50;;;;;;;-1.09;100.00;100925.38;6368661;22;20430;-76
2023/12/04 01:48:03;;;;;;;30.20;12.45;;;;;;;-1.10;100.00;100923.72;6369209;22;20025;-77
2023/12/04 01:50:28;;;;;;;28.33;13.15;;;;;;;-1.08;100.00;100913.91;6340619;22;20010;-76
2023/12/04 01:52:54;;;;;;;43.55;17.08;;;;;;;-1.00;100.00;100921.91;6340591;22;20008;-77
2023/12/04 01:55:21;;;;;;;36.70;16.80;;;;;;;-1.08;100.00;100903.41;6368532;22;20035;-76
2023/12/04 01:57:47;;;;;;;36.83;14.82;;;;;;;-1.07;100.00;100908.53;6368668;22;20139;-76
2023/12/04 02:00:14;;;;;;;35.20;14.15;;;;;;;-1.05;100.00;100911.00;6340625;22;20010;-78
2023/12/04 02:02:42;;;;;;;34.58;15.68;;;;;;;-1.05;100.00;100911.84;6340787;22;20007;-77
2023/12/04 02:05:08;;;;;;;29.80;12.52;;;;;;;-0.98;100.00;100904.25;6368520;22;20006;-77
2023/12/04 02:07:34;;;;;;;32.35;12.88;;;;;;;-1.11;100.00;100895.81;6368758;22;20006;-76
2023/12/04 02:09:59;;;;;;;45.58;18.58;;;;;;;-1.04;100.00;100899.56;6340753;22;20085;-77
2023/12/04 02:12:25;;;;;;;33.00;13.57;;;;;;;-1.14;100.00;100880.38;6368621;22;20010;-76
2023/12/04 02:14:51;;;;;;;39.80;16.70;;;;;;;-1.06;100.00;100883.13;6368663;22;20009;-78
2023/12/04 02:17:18;;;;;;;32.33;15.27;;;;;;;-1.05;100.00;100882.97;6340416;22;20054;-78
2023/12/04 02:19:44;;;;;;;37.17;13.75;;;;;;;-1.00;100.00;100899.13;6340617;22;19998;-78
2023/12/04 02:22:09;;;;;;;32.83;13.70;;;;;;;-1.06;100.00;100870.84;6368427;22;20078;-78
2023/12/04 02:24:35;;;;;;;28.15;11.52;;;;;;;-1.05;100.00;100876.91;6368442;22;20006;-77
2023/12/04 02:27:27;;;;;;;26.52;13.23;;;;;;;-1.03;100.00;100873.19;6340431;22;20003;-79
2023/12/04 02:29:57;;;;;;;30.67;12.60;;;;;;;-1.04;100.00;100866.28;6368853;22;20482;-78
2023/12/04 02:32:24;;;;;;;28.73;12.27;;;;;;;-1.02;100.00;100871.38;6340607;22;20335;-77
2023/12/04 02:34:52;;;;;;;31.90;14.18;;;;;;;-1.00;100.00;100877.31;6340471;22;20338;-78
2023/12/04 02:37:19;;;;;;;25.95;10.95;;;;;;;-1.01;100.00;100865.16;6340703;22;20002;-78
2023/12/04 02:39:44;;;;;;;25.40;13.15;;;;;;;-1.04;100.00;100858.41;6368473;22;19998;-78
2023/12/04 02:42:13;;;;;;;23.05;11.40;;;;;;;-0.99;100.00;100856.19;6340677;22;20053;-79
2023/12/04 02:44:39;;;;;;;25.92;11.85;;;;;;;-1.02;100.00;100859.09;6340611;22;20316;-79
2023/12/04 02:47:04;;;;;;;37.63;14.75;;;;;;;-1.05;100.00;100843.63;6368519;22;20074;-78
2023/12/04 02:49:29;;;;;;;27.15;12.20;;;;;;;-0.95;100.00;100856.72;6368518;22;20029;-77
2023/12/04 02:51:55;;;;;;;40.60;16.42;;;;;;;-0.99;100.00;100845.69;6368348;22;19999;-80
2023/12/04 02:54:20;;;;;;;29.80;13.07;;;;;;;-0.99;100.00;100848.31;6368413;22;20435;-78
2023/12/04 02:56:45;;;;;;;25.45;12.52;;;;;;;-1.14;100.00;100818.22;6368320;22;20045;-78
2023/12/04 02:59:11;;;;;;;37.35;15.63;;;;;;;-1.05;100.00;100830.50;6368583;22;20040;-78
2023/12/04 03:01:36;;;;;;;33.90;14.55;;;;;;;-1.12;100.00;100832.03;6340494;22;20063;-78
2023/12/04 03:04:01;;;;;;;22.15;10.63;;;;;;;-0.99;100.00;100827.31;6368473;22;20461;-78
2023/12/04 03:06:26;;;;;;;23.70;10.02;;;;;;;-1.05;100.00;100811.31;6340338;22;20423;-79
2023/12/04 03:08:52;;;;;;;27.95;12.00;;;;;;;-1.02;100.00;100811.84;6340439;22;20011;-78
2023/12/04 03:11:17;;;;;;;22.50;10.25;;;;;;;-1.09;100.00;100808.16;6340344;22;20010;-77
2023/12/04 03:13:42;;;;;;;23.95;10.43;;;;;;;-1.03;100.00;100806.75;6340362;22;20014;-77
2023/12/04 03:16:18;;;;;;;31.75;11.70;;;;;;;-0.95;100.00;100815.56;6368240;22;20297;-77
2023/12/04 03:18:44;;;;;;;18.13;9.95;;;;;;;-1.07;100.00;100803.59;6368329;22;20442;-78
2023/12/04 03:21:10;;;;;;;21.45;10.82;;;;;;;-1.01;100.00;100797.78;6368209;22;20006;-78
2023/12/04 03:23:35;;;;;;;29.52;13.05;;;;;;;-1.02;100.00;100792.66;6368447;22;20006;-78
2023/12/04 03:26:00;;;;;;;31.40;13.38;;;;;;;-1.08;100.00;100786.19;6368116;22;20327;-79
2023/12/04 03:28:26;;;;;;;25.48;10.40;;;;;;;-0.99;100.00;100801.09;6368152;22;20034;-78
2023/12/04 03:30:51;;;;;;;29.60;13.40;;;;;;;-1.05;100.00;100774.59;6368188;22;20009;-78
2023/12/04 03:33:16;;;;;;;25.77;11.65;;;;;;;-1.03;100.00;100773.47;6368044;22;20014;-77
2023/12/04 03:35:42;;;;;;;30.48;13.30;;;;;;;-1.04;100.00;100784.94;6368029;22;20058;-78
2023/12/04 03:38:07;;;;;;;31.35;14.18;;;;;;;-1.09;100.00;100768.78;6367955;22;20243;-78
2023/12/04 03:40:32;;;;;;;37.08;15.57;;;;;;;-1.03;100.00;100759.53;6339987;22;20002;-79
2023/12/04 03:42:58;;;;;;;21.88;10.38;;;;;;;-0.93;100.00;100773.44;6368116;22;20007;-78
2023/12/04 03:45:23;;;;;;;17.27;9.57;;;;;;;-0.97;100.00;100757.16;6367836;22;20006;-79
2023/12/04 03:47:49;;;;;;;23.60;11.98;;;;;;;-1.00;100.00;100754.00;6368152;22;20006;-78
2023/12/04 03:50:15;;;;;;;24.23;12.18;;;;;;;-1.03;100.00;100747.22;6340129;22;20302;-80
2023/12/04 03:52:41;;;;;;;26.67;12.02;;;;;;;-0.91;100.00;100758.38;6368073;22;20009;-79
2023/12/04 03:55:08;;;;;;;27.00;12.65;;;;;;;-1.04;100.00;100735.09;6368153;22;20010;-78
2023/12/04 03:57:33;;;;;;;17.65;9.40;;;;;;;-0.93;100.00;100755.91;6367992;22;20018;-78
2023/12/04 03:59:58;;;;;;;26.98;12.95;;;;;;;-1.00;100.00;100741.69;6340558;22;20331;-78
2023/12/04 04:02:24;;;;;;;15.88;8.38;;;;;;;-0.87;100.00;100748.41;6369233;22;20002;-79
2023/12/04 04:04:49;;;;;;;20.15;9.75;;;;;;;-0.97;100.00;100730.91;6341342;22;19999;-79
2023/12/04 04:07:16;;;;;;;19.95;9.98;;;;;;;-0.92;100.00;100740.97;6341808;22;20032;-78
2023/12/04 04:09:41;;;;;;;20.27;10.63;;;;;;;-0.97;100.00;100741.41;6369274;22;20002;-78
2023/12/04 04:12:07;;;;;;;17.90;10.75;;;;;;;-1.12;100.00;100715.78;6369322;22;20010;-79
2023/12/04 04:14:32;;;;;;;17.90;9.88;;;;;;;-0.98;100.00;100731.06;6369200;22;20120;-79
2023/12/04 04:16:57;;;;;;;21.08;10.27;;;;;;;-1.09;100.00;100716.31;6369228;22;20026;-79
2023/12/04 04:19:23;;;;;;;23.90;11.82;;;;;;;-0.98;100.00;100723.19;6341149;22;20006;-80
2023/12/04 04:21:48;;;;;;;24.00;11.70;;;;;;;-1.01;100.00;100728.72;6369255;22;20382;-79
2023/12/04 04:24:13;;;;;;;18.50;10.13;;;;;;;-1.09;100.00;100703.22;6341443;22;20316;-79
2023/12/04 04:26:39;;;;;;;18.60;11.10;;;;;;;-1.01;100.00;100711.19;6369222;22;20414;-79
2023/12/04 04:29:05;;;;;;;24.83;11.60;;;;;;;-1.09;100.00;100687.47;6341497;22;20322;-79
2023/12/04 04:31:30;;;;;;;23.48;11.20;;;;;;;-1.00;100.00;100710.22;6369224;22;20011;-81
2023/12/04 04:33:55;;;;;;;23.92;12.25;;;;;;;-1.03;100.00;100709.69;6369166;22;20112;-78
2023/12/04 04:36:20;;;;;;;18.23;10.65;;;;;;;-1.12;100.00;100700.03;6369117;22;20415;-78
2023/12/04 04:38:46;;;;;;;20.52;10.45;;;;;;;-1.07;100.00;100698.66;6369094;22;20423;-78
2023/12/04 04:41:15;;;;;;;28.67;12.82;;;;;;;-1.04;100.00;100695.72;6341096;22;20109;-78
2023/12/04 04:43:41;;;;;;;33.22;16.38;;;;;;;-0.99;100.00;100704.00;6369315;22;20010;-81
2023/12/04 04:46:06;;;;;;;25.75;13.73;;;;;;;-1.02;100.00;100691.16;6369132;22;20335;-79
2023/12/04 04:48:32;;;;;;;28.63;13.48;;;;;;;-1.03;100.00;100694.75;6368981;22;20094;-79
2023/12/04 04:50:57;;;;;;;24.45;12.73;;;;;;;-1.04;100.00;100695.72;6369020;22;20016;-79
2023/12/04 04:53:24;;;;;;;16.60;9.48;;;;;;;-1.06;100.00;100687.19;6368879;22;19995;-78
2023/12/04 04:55:50;;;;;;;31.30;11.45;;;;;;;-1.03;100.00;100683.44;6368919;22;20002;-78
2023/12/04 04:58:18;;;;;;;26.27;13.80;;;;;;;-1.04;100.00;100692.28;6369178;22;20025;-78
2023/12/04 05:00:44;;;;;;;21.67;11.13;;;;;;;-1.01;100.00;100694.63;6341252;22;20006;-79
2023/12/04 05:03:09;;;;;;;20.30;10.20;;;;;;;-1.01;100.00;100692.00;6341092;22;20104;-79
2023/12/04 05:05:34;;;;;;;20.23;9.32;;;;;;;-0.96;100.00;100695.00;6341128;22;20094;-79
2023/12/04 05:08:00;;;;;;;15.93;8.93;;;;;;;-0.98;100.00;100703.03;6368977;22;20002;-79
2023/12/04 05:10:25;;;;;;;23.55;11.15;;;;;;;-1.08;100.00;100681.25;6340921;22;20010;-80
2023/12/04 05:12:50;;;;;;;20.95;10.77;;;;;;;-1.03;100.00;100692.13;6368942;22;20006;-80
2023/12/04 05:15:16;;;;;;;18.50;9.55;;;;;;;-1.00;100.00;100688.41;6340988;22;20017;-79
2023/12/04 05:17:41;;;;;;;18.33;10.35;;;;;;;-0.99;100.00;100685.63;6369014;22;20082;-79
2023/12/04 05:20:07;;;;;;;28.30;12.90;;;;;;;-0.97;100.00;100678.44;6368792;22;20093;-80
2023/12/04 05:22:33;;;;;;;22.73;11.73;;;;;;;-0.94;100.00;100674.69;6368861;22;20013;-80
2023/12/04 05:24:59;;;;;;;26.00;12.32;;;;;;;-1.06;100.00;100658.31;6368694;22;20002;-79
2023/12/04 05:27:24;;;;;;;20.27;11.77;;;;;;;-1.01;100.00;100666.59;6369049;22;20120;-80
2023/12/04 05:29:50;;;;;;;22.35;12.73;;;;;;;-1.04;100.00;100653.75;6368805;22;20029;-79
2023/12/04 05:32:15;;;;;;;26.13;13.88;;;;;;;-1.02;100.00;100657.06;6368772;22;20051;-80
2023/12/04 05:34:40;;;;;;;26.25;12.35;;;;;;;-1.00;100.00;100651.66;6368660;22;20003;-79
2023/12/04 05:37:05;;;;;;;25.23;13.82;;;;;;;-1.03;100.00;100646.72;6340994;22;20294;-79
2023/12/04 05:39:31;;;;;;;24.63;12.57;;;;;;;-1.08;100.00;100643.69;6340824;22;20324;-79
2023/12/04 05:41:56;;;;;;;17.65;10.13;;;;;;;-0.96;100.00;100648.59;6341000;22;20007;-78
2023/12/04 05:44:22;;;;;;;20.02;10.85;;;;;;;-1.00;100.00;100639.38;6368680;22;20402;-79
2023/12/04 05:46:48;;;;;;;13.80;8.48;;;;;;;-0.90;100.00;100641.13;6340710;22;20006;-79
2023/12/04 05:49:13;;;;;;;21.75;11.75;;;;;;;-1.04;100.00;100643.25;6340878;22;20009;-79
2023/12/04 05:51:38;;;;;;;20.23;11.55;;;;;;;-1.02;100.00;100633.44;6368818;22;20034;-79
2023/12/04 05:54:04;;;;;;;12.85;7.82;;;;;;;-1.00;100.00;100652.50;6341117;22;20021;-79
2023/12/04 05:56:29;;;;;;;19.27;9.48;;;;;;;-1.00;100.00;100649.03;6368723;22;20077;-79
2023/12/04 05:58:55;;;;;;;23.98;12.77;;;;;;;-1.00;100.00;100647.25;6340882;22;20007;-77
2023/12/04 06:01:21;;;;;;;20.67;9.65;;;;;;;-0.96;100.00;100637.28;6340711;22;20428;-80
2023/12/04 06:03:46;;;;;;;15.25;8.95;;;;;;;-1.00;100.00;100628.06;6340833;22;20010;-79
2023/12/04 06:06:11;;;;;;;18.15;9.85;;;;;;;-0.93;100.00;100627.31;6340701;22;20002;-80
2023/12/04 06:08:37;;;;;;;22.10;12.05;;;;;;;-1.05;100.00;100623.25;6368668;22;20014;-80
2023/12/04 06:11:02;;;;;;;20.05;11.20;;;;;;;-1.01;100.00;100621.97;6368553;22;20006;-81
2023/12/04 06:13:28;;;;;;;16.00;9.30;;;;;;;-1.04;100.00;100630.13;6368626;22;20007;-79
2023/12/04 06:15:53;;;;;;;13.93;8.50;;;;;;;-1.06;100.00;100605.84;6340730;22;20029;-79
2023/12/04 06:18:20;;;;;;;14.50;8.65;;;;;;;-1.00;100.00;100613.13;6368428;22;20011;-79
2023/12/04 06:20:45;;;;;;;23.10;12.32;;;;;;;-0.97;100.00;100597.09;6368364;22;20418;-80
2023/12/04 06:23:11;;;;;;;18.73;8.68;;;;;;;-0.98;100.00;100608.56;6340266;22;20012;-81
2023/12/04 06:25:38;;;;;;;18.70;11.63;;;;;;;-0.85;100.00;100604.78;6368592;22;20434;-79
2023/12/04 06:28:04;;;;;;;17.00;9.93;;;;;;;-0.91;100.00;100598.31;6340820;22;20316;-78
2023/12/04 06:30:30;;;;;;;18.48;9.68;;;;;;;-0.80;100.00;100589.44;6368587;22;20007;-78
2023/12/04 06:32:55;;;;;;;15.95;9.98;;;;;;;-0.93;100.00;100577.47;6340658;22;20006;-78
2023/12/04 06:35:21;;;;;;;13.73;8.90;;;;;;;-0.88;100.00;100576.19;6340471;22;20029;-78
2023/12/04 06:37:49;;;;;;;15.60;8.10;;;;;;;-0.76;100.00;100565.38;6366989;22;20017;-80
2023/12/04 06:40:14;;;;;;;15.77;9.32;;;;;;;-0.88;100.00;100557.81;6340540;22;20090;-80
2023/12/04 06:42:40;;;;;;;12.88;8.32;;;;;;;-0.84;100.00;100562.66;6368886;22;20423;-80
2023/12/04 06:45:06;;;;;;;16.83;10.55;;;;;;;-0.83;100.00;100561.69;6368570;22;20083;-79
2023/12/04 06:47:34;;;;;;;14.98;9.38;;;;;;;-0.82;100.00;100547.59;6367685;22;20006;-78
2023/12/04 06:49:59;;;;;;;13.77;7.72;;;;;;;-0.78;100.00;100541.06;6369215;22;20073;-78
2023/12/04 06:52:24;;;;;;;14.45;7.18;;;;;;;-0.84;100.00;100546.91;6368201;22;20029;-79
2023/12/04 06:54:50;;;;;;;16.70;8.45;;;;;;;-0.93;100.00;100543.34;6368856;22;20036;-79
2023/12/04 06:57:15;;;;;;;13.48;8.20;;;;;;;-0.89;100.00;100543.06;6366968;22;20055;-78
2023/12/04 06:59:43;;;;;;;11.45;7.47;;;;;;;-0.83;100.00;100564.31;6368407;22;20045;-79
2023/12/04 07:02:09;;;;;;;12.00;7.15;;;;;;;-0.90;100.00;100557.16;6368533;22;20005;-77
2023/12/04 07:04:34;;;;;;;11.90;7.50;;;;;;;-0.82;100.00;100557.25;6340648;22;20006;-78
2023/12/04 07:07:04;;;;;;;10.80;6.88;;;;;;;-0.81;100.00;100562.34;6368454;22;19998;-77
2023/12/04 07:09:31;;;;;;;13.27;8.35;;;;;;;-0.88;100.00;100557.81;6368591;22;20006;-78
2023/12/04 07:11:57;;;;;;;11.80;6.95;;;;;;;-0.90;100.00;100542.22;6368425;22;20002;-78
2023/12/04 07:14:23;;;;;;;12.68;8.10;;;;;;;-0.85;100.00;100547.88;6368184;22;20002;-77
2023/12/04 07:16:49;;;;;;;12.15;6.25;;;;;;;-0.93;100.00;100532.84;6368193;22;20077;-78
2023/12/04 07:19:16;;;;;;;10.65;7.07;;;;;;;-0.86;100.00;100548.03;6340103;22;20335;-77
2023/12/04 07:21:41;;;;;;;13.45;8.18;;;;;;;-0.81;100.00;100543.16;6340195;22;20007;-77
2023/12/04 07:24:07;;;;;;;8.32;5.63;;;;;;;-0.81;100.00;100551.88;6340391;22;20006;-77
2023/12/04 07:26:34;;;;;;;10.90;6.63;;;;;;;-0.83;100.00;100548.56;6368245;22;20002;-75
2023/12/04 07:28:59;;;;;;;12.05;7.05;;;;;;;-0.82;100.00;100554.63;6340314;22;20097;-77
2023/12/04 07:31:26;;;;;;;13.15;7.18;;;;;;;-0.85;100.00;100553.13;6340406;22;20033;-76
2023/12/04 07:33:55;;;;;;;12.00;7.93;;;;;;;-0.85;100.00;100552.31;6339620;22;20003;-77
2023/12/04 07:36:21;;;;;;;9.30;6.55;;;;;;;-0.81;100.00;100546.63;6368039;22;20010;-77
2023/12/04 07:38:46;;;;;;;13.23;8.32;;;;;;;-0.90;100.00;100542.22;6368225;22;20010;-77
2023/12/04 07:41:13;;;;;;;10.70;7.10;;;;;;;-0.87;100.00;100543.72;6368080;22;20013;-77
2023/12/04 07:43:39;;;;;;;12.15;6.95;;;;;;;-0.84;100.00;100552.16;6368101;22;20006;-75
2023/12/04 07:46:04;;;;;;;11.23;6.80;;;;;;;-0.79;100.00;100539.41;6340089;22;20085;-77
2023/12/04 07:48:30;;;;;;;10.82;6.35;;;;;;;-0.70;100.00;100551.63;6340180;22;20003;-77
2023/12/04 07:50:56;;;;;;;10.82;7.38;;;;;;;-0.85;100.00;100545.25;6340119;22;20007;-77
2023/12/04 07:53:22;;;;;;;11.57;7.90;;;;;;;-0.67;100.00;100551.34;6368202;22;20013;-77
2023/12/04 07:55:49;;;;;;;9.43;6.55;;;;;;;-0.75;100.00;100546.00;6367960;22;20012;-76
2023/12/04 07:58:15;;;;;;;10.52;6.88;;;;;;;-0.73;100.00;100553.75;6367810;22;20078;-77
2023/12/04 08:00:40;;;;;;;12.10;7.65;;;;;;;-0.81;100.00;100545.78;6367660;22;20026;-77
2023/12/04 08:03:06;;;;;;;9.82;7.00;;;;;;;-0.81;100.00;100527.41;6367914;22;20369;-78
2023/12/04 08:05:32;;;;;;;10.15;6.88;;;;;;;-0.76;100.00;100535.66;6339798;22;20331;-78
2023/12/04 08:07:57;;;;;;;10.98;7.57;;;;;;;-0.79;100.00;100526.28;6340007;22;20006;-76
2023/12/04 08:10:23;;;;;;;14.27;7.90;;;;;;;-0.78;100.00;100524.50;6367905;22;20007;-77
2023/12/04 08:12:49;;;;;;;9.68;6.82;;;;;;;-0.72;100.00;100529.13;6367653;22;20445;-77
2023/12/04 08:15:14;;;;;;;7.60;5.47;;;;;;;-0.71;100.00;100517.66;6339834;22;20002;-78
2023/12/04 08:17:40;;;;;;;10.38;7.18;;;;;;;-0.81;100.00;100515.13;6339803;22;20077;-77
2023/12/04 08:20:06;;;;;;;9.90;6.72;;;;;;;-0.78;100.00;100514.81;6367827;22;19998;-80
2023/12/04 08:22:31;;;;;;;8.52;6.07;;;;;;;-0.80;100.00;100513.31;6368201;22;20002;-78
2023/12/04 08:24:58;;;;;;;10.73;7.55;;;;;;;-0.84;100.00;100504.91;6367616;22;20077;-79
2023/12/04 08:27:24;;;;;;;12.02;6.78;;;;;;;-0.69;100.00;100515.72;6366113;22;20079;-80
2023/12/04 08:29:49;;;;;;;8.63;5.63;;;;;;;-0.54;100.00;100516.03;6339629;22;20097;-80
2023/12/04 08:32:15;;;;;;;7.55;5.47;;;;;;;-0.60;100.00;100504.31;6367724;22;20452;-79
2023/12/04 08:34:40;;;;;;;10.93;7.28;;;;;;;-0.58;100.00;100520.72;6339803;22;20029;-78
2023/12/04 08:37:05;;;;;;;8.40;6.60;;;;;;;-0.70;100.00;100500.94;6367788;22;20006;-80
2023/12/04 08:39:31;;;;;;;10.20;7.28;;;;;;;-0.74;100.00;100483.84;6368129;22;20048;-77
2023/12/04 08:41:56;;;;;;;9.80;6.70;;;;;;;-0.56;100.00;100487.31;6367554;22;20008;-78
2023/12/04 08:44:22;;;;;;;10.57;6.10;;;;;;;-0.75;100.00;100482.19;6339532;22;20002;-78
2023/12/04 08:46:47;;;;;;;10.27;6.95;;;;;;;-0.66;100.00;100476.03;6340747;22;20061;-76
2023/12/04 08:49:12;;;;;;;8.85;6.13;;;;;;;-0.63;100.00;100476.56;6368961;22;19999;-77
2023/12/04 08:51:38;;;;;;;9.27;6.63;;;;;;;-0.61;100.00;100473.78;6368946;22;20013;-78
2023/12/04 08:54:04;;;;;;;9.93;6.38;;;;;;;-0.69;100.00;100469.28;6341156;22;20309;-78
2023/12/04 08:56:29;;;;;;;13.15;6.75;;;;;;;-0.58;100.00;100464.78;6369022;22;20073;-77
2023/12/04 08:58:54;;;;;;;12.63;7.93;;;;;;;-0.57;100.00;100456.78;6341527;22;20423;-79
2023/12/04 09:01:20;;;;;;;8.25;6.10;;;;;;;-0.69;100.00;100453.53;6368933;22;20007;-79
2023/12/04 09:03:45;;;;;;;11.02;7.05;;;;;;;-0.56;100.00;100455.78;6341136;22;20067;-79
2023/12/04 09:06:11;;;;;;;10.65;5.57;;;;;;;-0.67;100.00;100453.38;6369028;22;20488;-78
2023/12/04 09:08:36;;;;;;;10.70;5.97;;;;;;;-0.60;100.00;100450.97;6341039;22;20002;-79
2023/12/04 09:11:03;;;;;;;7.82;6.15;;;;;;;-0.68;100.00;100449.94;6369097;22;20119;-78
2023/12/04 09:13:32;;;;;;;11.07;6.65;;;;;;;-0.62;100.00;100456.38;6368969;22;20029;-77
2023/12/04 09:15:57;;;;;;;11.13;5.82;;;;;;;-0.60;100.00;100451.78;6341056;22;20045;-78
2023/12/04 09:18:23;;;;;;;10.98;7.80;;;;;;;-0.64;100.00;100455.72;6368788;22;20042;-78
2023/12/04 09:20:51;;;;;;;8.57;5.75;;;;;;;-0.49;100.00;100445.50;6368487;22;20026;-78
2023/12/04 09:23:16;;;;;;;10.57;7.75;;;;;;;-0.48;100.00;100457.66;6367292;22;20063;-78
2023/12/04 09:25:41;;;;;;;8.05;5.88;;;;;;;-0.43;100.00;100455.38;6368617;22;20251;-79
2023/12/04 09:28:07;;;;;;;10.05;6.57;;;;;;;-0.46;100.00;100458.31;6340973;22;20161;-78
2023/12/04 09:30:35;;;;;;;8.13;5.43;;;;;;;-0.48;100.00;100437.47;6368783;22;20063;-78
2023/12/04 09:33:01;;;;;;;10.57;6.85;;;;;;;-0.45;100.00;100439.78;6341013;22;20002;-81
2023/12/04 09:35:26;;;;;;;11.57;7.50;;;;;;;-0.41;100.00;100449.00;6341124;22;20383;-78
2023/12/04 09:37:52;;;;;;;9.93;6.70;;;;;;;-0.44;100.00;100451.13;6340847;22;20009;-79
2023/12/04 09:40:18;;;;;;;12.10;7.75;;;;;;;-0.39;100.00;100443.59;6368786;22;20044;-79
2023/12/04 09:42:43;;;;;;;12.05;7.57;;;;;;;-0.45;100.00;100442.41;6368670;22;20052;-79
2023/12/04 09:45:10;;;;;;;11.35;7.55;;;;;;;-0.45;100.00;100438.97;6340940;22;20010;-79
2023/12/04 09:47:36;;;;;;;12.02;7.20;;;;;;;-0.35;100.00;100442.31;6340659;22;20002;-80
2023/12/04 09:50:02;;;;;;;10.10;6.72;;;;;;;-0.38;100.00;100440.00;6339576;22;20431;-76
2023/12/04 09:52:28;;;;;;;11.85;7.28;;;;;;;-0.33;100.00;100446.44;6368710;22;20010;-77
2023/12/04 09:54:53;;;;;;;11.98;6.75;;;;;;;-0.33;100.00;100446.44;6340986;22;20117;-77
2023/12/04 09:57:24;;;;;;;11.48;7.03;;;;;;;-0.30;100.00;100447.94;6368254;22;19998;-79
2023/12/04 09:59:51;;;;;;;10.02;7.32;;;;;;;-0.28;100.00;100445.19;6368716;22;20006;-78
2023/12/04 10:02:16;;;;;;;10.57;7.82;;;;;;;-0.28;100.00;100450.44;6368911;22;20411;-77
2023/12/04 10:04:42;;;;;;;15.18;7.40;;;;;;;-0.34;100.00;100441.34;6340693;22;20012;-77
2023/12/04 10:07:08;;;;;;;8.82;6.40;;;;;;;-0.35;100.00;100443.13;6340642;22;20033;-77
2023/12/04 10:09:33;;;;;;;9.32;5.75;;;;;;;-0.26;100.00;100430.91;6368522;22;20006;-76
2023/12/04 10:11:59;;;;;;;10.88;7.70;;;;;;;-0.29;100.00;100440.88;6368610;22;20445;-77
2023/12/04 10:14:25;;;;;;;10.25;6.60;;;;;;;-0.35;100.00;100424.75;6340647;22;20014;-77
2023/12/04 10:16:52;;;;;;;9.27;6.82;;;;;;;-0.38;100.00;100411.09;6340659;22;20006;-78
2023/12/04 10:19:31;;;;;;;9.93;6.10;;;;;;;-0.30;100.00;100413.78;6368251;22;20052;-78
2023/12/04 10:22:02;;;;;;;10.25;7.03;;;;;;;-0.26;100.00;100415.16;6368706;22;20419;-77
2023/12/04 10:24:40;;;;;;;12.02;8.45;;;;;;;-0.29;100.00;100414.59;6368564;22;20006;-78
2023/12/04 10:27:17;;;;;;;11.43;7.82;;;;;;;-0.36;100.00;100391.59;6340530;22;20002;-77
2023/12/04 10:29:52;;;;;;;12.10;7.93;;;;;;;-0.32;100.00;100392.91;6340550;22;19998;-78
2023/12/04 10:32:21;;;;;;;13.57;8.77;;;;;;;-0.30;100.00;100390.13;6368531;22;20146;-76
2023/12/04 10:34:47;;;;;;;12.52;8.48;;;;;;;-0.20;100.00;100390.06;6340539;22;20009;-78
2023/12/04 10:37:12;;;;;;;15.40;8.38;;;;;;;-0.17;100.00;100377.44;6368422;22;20093;-78
2023/12/04 10:39:48;;;;;;;14.93;8.77;;;;;;;-0.23;100.00;100372.81;6368365;22;20002;-78
2023/12/04 10:42:26;;;;;;;14.10;8.95;;;;;;;-0.16;100.00;100365.94;6368350;22;20006;-76
2023/12/04 10:44:55;;;;;;;16.42;8.95;;;;;;;-0.12;100.00;100358.56;6341032;22;20434;-77
2023/12/04 10:47:21;;;;;;;13.23;9.45;;;;;;;-0.15;100.00;100343.94;6369145;22;19998;-76
2023/12/04 10:49:50;;;;;;;14.90;8.77;;;;;;;-0.13;100.00;100355.09;6340452;22;19998;-76
2023/12/04 10:52:16;;;;;;;11.15;6.57;;;;;;;-0.05;100.00;100354.31;6368861;22;20002;-76
2023/12/04 10:54:41;;;;;;;13.48;8.68;;;;;;;0.04;100.00;100342.88;6368441;22;20002;-77
2023/12/04 10:57:08;;;;;;;15.00;10.45;;;;;;;-0.03;100.00;100341.84;6368271;22;20006;-77
2023/12/04 10:59:38;;;;;;;12.82;9.80;;;;;;;-0.06;100.00;100326.41;6340381;22;20002;-79
2023/12/04 11:02:05;;;;;;;11.20;8.05;;;;;;;0.13;100.00;100339.28;6340090;22;20439;-80